Time;durP1;ratioP1;P1;durP2;ratioP2;P2;SDS_P1;SDS_P2;PMS_P1;PMS_P2;Temp;Humidity;BMP_temperature;BMP_pressure;BME280_temperature;BME280_humidity;BME280_pressure;Samples;Min_cycle;Max_cycle;Signal;HPM_P1;HPM_P2
2023/02/27 00:00:51;;;;;;;25.40;11.50;;;-2.20;1.00;;;;;;5078670;28;20464;-60
2023/02/27 00:03:18;;;;;;;26.50;11.70;;;-2.10;1.00;;;;;;5078723;28;20878;-60
2023/02/27 00:05:45;;;;;;;25.13;10.47;;;-2.10;1.00;;;;;;5077981;28;20983;-60
2023/02/27 00:08:12;;;;;;;18.30;9.23;;;-2.10;1.00;;;;;;5078000;28;20516;-59
2023/02/27 00:10:44;;;;;;;14.27;8.03;;;-2.10;1.00;;;;;;5078280;28;20454;-60
2023/02/27 00:13:11;;;;;;;9.20;6.27;;;-2.10;1.00;;;;;;5078484;28;20953;-60
2023/02/27 00:15:39;;;;;;;7.70;4.47;;;-2.10;1.00;;;;;;5077935;28;20450;-60
2023/02/27 00:18:07;;;;;;;7.90;5.63;;;-2.10;1.00;;;;;;5077471;28;20509;-61
2023/02/27 00:20:36;;;;;;;6.13;4.20;;;-2.20;1.00;;;;;;5078041;28;20457;-60
2023/02/27 00:23:04;;;;;;;9.30;4.73;;;-2.20;1.00;;;;;;5078242;28;20464;-60
2023/02/27 00:25:31;;;;;;;7.00;5.07;;;-2.10;1.00;;;;;;5078219;28;20453;-60
2023/02/27 00:28:01;;;;;;;7.73;4.70;;;-2.20;1.00;;;;;;5078330;28;20453;-59
2023/02/27 00:30:28;;;;;;;7.40;4.63;;;-2.20;1.00;;;;;;5078159;28;20758;-58
2023/02/27 00:32:55;;;;;;;6.70;4.27;;;-2.20;1.00;;;;;;5078727;28;20450;-59
2023/02/27 00:35:24;;;;;;;5.83;4.63;;;-2.20;1.00;;;;;;5077913;28;20463;-59
2023/02/27 00:37:52;;;;;;;6.90;4.97;;;-2.20;1.00;;;;;;5078719;28;20456;-58
2023/02/27 00:40:19;;;;;;;5.90;4.30;;;-2.20;1.00;;;;;;5078631;28;20583;-58
2023/02/27 00:42:47;;;;;;;7.43;5.20;;;-2.30;1.00;;;;;;5077682;28;20498;-58
2023/02/27 00:45:16;;;;;;;7.00;5.77;;;-2.30;1.00;;;;;;5078032;28;20540;-58
2023/02/27 00:47:43;;;;;;;12.47;5.57;;;-2.30;1.00;;;;;;5078124;28;20500;-58
2023/02/27 00:50:13;;;;;;;5.97;4.60;;;-2.30;1.00;;;;;;5075601;28;20478;-60
2023/02/27 00:52:40;;;;;;;5.77;5.00;;;-2.30;1.00;;;;;;5077487;28;20814;-58
2023/02/27 00:55:09;;;;;;;6.27;4.77;;;-2.40;1.00;;;;;;5077830;28;20523;-59
2023/02/27 00:57:39;;;;;;;5.47;4.43;;;-2.40;1.00;;;;;;5077454;28;20456;-59
2023/02/27 01:00:09;;;;;;;6.47;4.53;;;-2.40;1.00;;;;;;5077524;28;20519;-60
2023/02/27 01:02:37;;;;;;;7.03;4.93;;;-2.40;1.00;;;;;;5077467;28;20454;-59
2023/02/27 01:05:05;;;;;;;6.93;5.03;;;-2.50;1.00;;;;;;5077531;28;20453;-58
2023/02/27 01:07:33;;;;;;;8.60;4.40;;;-2.50;1.00;;;;;;5075037;28;20484;-60
2023/02/27 01:10:00;;;;;;;9.30;5.03;;;-2.50;1.00;;;;;;5077248;28;20457;-60
2023/02/27 01:12:28;;;;;;;7.80;5.10;;;-2.50;1.00;;;;;;5076938;28;20454;-60
2023/02/27 01:14:59;;;;;;;5.47;4.60;;;-2.40;1.00;;;;;;5077133;28;20489;-61
2023/02/27 01:17:27;;;;;;;6.50;3.80;;;-2.40;1.00;;;;;;5076648;28;20506;-61
2023/02/27 01:19:56;;;;;;;7.60;3.90;;;-2.40;1.00;;;;;;5076171;28;20456;-60
2023/02/27 01:22:23;;;;;;;6.83;4.13;;;-2.40;1.00;;;;;;5076655;28;20503;-60
2023/02/27 01:24:51;;;;;;;5.23;4.40;;;-2.30;1.00;;;;;;5074282;28;20464;-60
2023/02/27 01:27:18;;;;;;;5.33;3.80;;;-2.40;1.00;;;;;;5076526;28;20453;-60
2023/02/27 01:29:45;;;;;;;7.97;4.67;;;-2.50;1.00;;;;;;5077051;28;20432;-59
2023/02/27 01:32:12;;;;;;;5.30;4.30;;;-2.40;1.00;;;;;;5074633;28;20727;-59
2023/02/27 01:34:40;;;;;;;6.13;5.27;;;-2.50;1.00;;;;;;5076705;28;20500;-58
2023/02/27 01:37:09;;;;;;;5.03;4.27;;;-2.50;1.00;;;;;;5071424;28;20460;-60
2023/02/27 01:39:37;;;;;;;5.73;4.33;;;-2.60;1.00;;;;;;5076506;28;20460;-58
2023/02/27 01:42:06;;;;;;;5.30;4.37;;;-2.60;1.00;;;;;;5075221;28;20431;-59
2023/02/27 01:45:18;;;;;;;7.13;4.30;;;-2.60;1.00;;;;;;5076480;28;20507;-58
2023/02/27 01:47:48;;;;;;;6.20;4.60;;;-2.70;1.00;;;;;;5048921;28;20644;-61
2023/02/27 01:50:18;;;;;;;6.97;4.60;;;-2.70;1.00;;;;;;5077385;28;20768;-60
2023/02/27 01:52:51;;;;;;;5.70;4.10;;;-2.70;1.00;;;;;;5076388;28;20458;-60
2023/02/27 01:55:20;;;;;;;7.57;5.50;;;-2.80;1.00;;;;;;5076518;28;20897;-59
2023/02/27 01:57:49;;;;;;;11.73;5.20;;;-2.70;1.00;;;;;;5073774;28;20489;-61
2023/02/27 02:00:18;;;;;;;8.93;5.20;;;-2.80;1.00;;;;;;5076677;28;20492;-61
2023/02/27 02:02:54;;;;;;;7.33;5.40;;;-2.70;1.00;;;;;;5074548;28;20481;-60
2023/02/27 02:05:23;;;;;;;7.47;4.53;;;-2.70;1.00;;;;;;5074306;28;20787;-59
2023/02/27 02:07:52;;;;;;;7.00;4.80;;;-2.70;1.00;;;;;;5074330;28;20445;-60
2023/02/27 02:10:21;;;;;;;5.00;4.00;;;-2.70;1.00;;;;;;5075987;28;20586;-59
2023/02/27 02:12:53;;;;;;;8.30;5.00;;;-2.70;1.00;;;;;;5075703;28;20831;-59
2023/02/27 02:15:24;;;;;;;7.17;4.87;;;-2.70;1.00;;;;;;5075563;28;20480;-60
2023/02/27 02:18:00;;;;;;;6.30;5.20;;;-2.80;1.00;;;;;;5073504;28;20585;-59
2023/02/27 02:20:57;;;;;;;6.60;5.00;;;-2.70;1.00;;;;;;5075518;28;20531;-59
2023/02/27 02:24:00;;;;;;;5.47;4.67;;;-2.90;1.00;;;;;;5074883;28;20487;-60
2023/02/27 02:26:42;;;;;;;6.50;4.40;;;-2.90;1.00;;;;;;5061250;28;20449;-60
2023/02/27 02:29:42;;;;;;;6.83;5.30;;;-2.90;1.00;;;;;;5075749;28;20458;-59
2023/02/27 02:32:49;;;;;;;8.80;5.60;;;-3.00;1.00;;;;;;5080346;28;20465;-61
2023/02/27 02:36:00;;;;;;;9.33;5.30;;;-3.00;1.00;;;;;;5081043;28;20758;-61
2023/02/27 02:38:52;;;;;;;7.80;5.30;;;-3.00;1.00;;;;;;5081408;28;20484;-60
2023/02/27 02:41:25;;;;;;;10.00;5.13;;;-3.00;1.00;;;;;;5081630;28;20519;-60
2023/02/27 02:44:02;;;;;;;6.17;4.20;;;-2.90;1.00;;;;;;5081552;28;20461;-60
2023/02/27 02:46:36;;;;;;;5.10;4.57;;;-2.90;1.00;;;;;;5080864;28;20435;-60
2023/02/27 02:49:13;;;;;;;11.60;6.27;;;-2.90;1.00;;;;;;5080637;28;20469;-59
2023/02/27 02:51:49;;;;;;;8.27;4.97;;;-2.90;1.00;;;;;;5081050;28;20873;-61
2023/02/27 02:54:24;;;;;;;6.57;4.33;;;-2.90;1.00;;;;;;5079974;28;20773;-59
2023/02/27 02:56:56;;;;;;;6.57;5.03;;;-3.00;1.00;;;;;;5079317;28;20481;-60
2023/02/27 02:59:29;;;;;;;6.70;5.27;;;-3.00;1.00;;;;;;5079699;28;20461;-61
2023/02/27 03:02:01;;;;;;;5.20;4.23;;;-3.00;1.00;;;;;;5077807;28;20459;-61
2023/02/27 03:04:34;;;;;;;9.30;4.90;;;-3.10;1.00;;;;;;5079354;28;20464;-60
2023/02/27 03:07:06;;;;;;;6.30;4.47;;;-3.00;1.00;;;;;;5079075;28;20522;-61
2023/02/27 03:09:40;;;;;;;13.07;5.93;;;-3.00;1.00;;;;;;5076549;28;20948;-61
2023/02/27 03:12:11;;;;;;;8.97;5.70;;;-3.00;1.00;;;;;;5079179;28;20457;-60
2023/02/27 03:14:45;;;;;;;5.13;4.20;;;-2.90;1.00;;;;;;5079122;28;20829;-61
2023/02/27 03:17:20;;;;;;;7.90;4.50;;;-2.80;1.00;;;;;;5076534;28;20481;-61
2023/02/27 03:19:53;;;;;;;6.90;4.70;;;-2.80;1.00;;;;;;5079252;28;20457;-61
2023/02/27 03:22:25;;;;;;;5.90;4.50;;;-2.90;1.00;;;;;;5079202;28;20466;-60
2023/02/27 03:24:57;;;;;;;5.70;4.27;;;-2.90;1.00;;;;;;5076521;28;20450;-61
2023/02/27 03:27:28;;;;;;;6.47;5.00;;;-2.90;1.00;;;;;;5078942;28;20459;-61
2023/02/27 03:29:59;;;;;;;12.27;5.13;;;-2.90;1.00;;;;;;5077302;28;20755;-61
2023/02/27 03:32:32;;;;;;;6.57;4.67;;;-3.00;1.00;;;;;;5078938;28;20772;-61
2023/02/27 03:35:00;;;;;;;10.17;6.20;;;-2.90;1.00;;;;;;5078874;28;20465;-61
2023/02/27 03:37:36;;;;;;;6.30;5.10;;;-2.80;25.80;;;;;;5078947;28;20493;-61
2023/02/27 03:40:14;;;;;;;6.20;5.40;;;-2.80;36.70;;;;;;5078956;28;20463;-61
2023/02/27 03:42:46;;;;;;;6.47;4.53;;;-2.80;22.00;;;;;;5076864;28;20460;-61
2023/02/27 03:45:20;;;;;;;8.20;4.87;;;-2.80;2.80;;;;;;5076778;28;20464;-61
2023/02/27 03:47:48;;;;;;;5.63;4.20;;;-2.80;2.30;;;;;;5078496;28;20453;-61
2023/02/27 03:50:16;;;;;;;8.40;5.13;;;-2.80;1.00;;;;;;5078712;28;20884;-59
2023/02/27 03:52:44;;;;;;;13.20;4.93;;;-2.80;1.00;;;;;;5078291;28;20446;-61
2023/02/27 03:55:17;;;;;;;7.10;5.03;;;-2.80;2.40;;;;;;5078504;28;20460;-61
2023/02/27 03:57:46;;;;;;;5.80;4.20;;;-2.80;1.00;;;;;;5078980;28;20477;-60
2023/02/27 04:00:16;;;;;;;7.67;5.03;;;-2.90;1.00;;;;;;5078272;28;20454;-61
2023/02/27 04:02:45;;;;;;;6.10;4.80;;;-2.80;1.00;;;;;;5077815;28;20497;-61
2023/02/27 04:05:13;;;;;;;5.63;4.07;;;-2.90;1.00;;;;;;5078416;28;20489;-60
2023/02/27 04:07:53;;;;;;;6.60;4.73;;;-2.90;1.00;;;;;;5038233;28;20505;-59
2023/02/27 04:10:48;;;;;;;7.33;4.27;;;-3.00;1.00;;;;;;5020339;28;20466;-57
2023/02/27 04:13:35;;;;;;;8.47;5.10;;;-3.10;1.00;;;;;;5011416;28;20509;-60
2023/02/27 04:16:23;;;;;;;5.90;4.30;;;-3.10;1.00;;;;;;5035510;28;20839;-59
2023/02/27 04:19:03;;;;;;;6.50;4.70;;;-3.30;1.00;;;;;;5036222;28;20513;-61
2023/02/27 04:21:48;;;;;;;7.80;5.50;;;-3.30;21.40;;;;;;5037193;28;20965;-61
2023/02/27 04:24:30;;;;;;;18.63;8.97;;;-3.30;54.40;;;;;;5037475;28;20464;-60
2023/02/27 04:27:06;;;;;;;16.93;9.30;;;-3.30;68.80;;;;;;5037776;28;20487;-59
2023/02/27 04:29:43;;;;;;;7.07;5.73;;;-3.40;99.90;;;;;;5037773;28;20445;-60
2023/02/27 04:32:18;;;;;;;10.87;7.33;;;-3.40;99.90;;;;;;5036914;28;20459;-56
2023/02/27 04:34:52;;;;;;;10.43;5.87;;;-3.40;99.90;;;;;;5035890;28;20504;-59
2023/02/27 04:37:26;;;;;;;8.77;5.80;;;-3.40;99.90;;;;;;5037718;28;20483;-60
2023/02/27 04:40:01;;;;;;;11.67;6.73;;;-3.50;99.90;;;;;;5037794;28;20454;-59
2023/02/27 04:42:32;;;;;;;11.80;7.20;;;-3.50;99.90;;;;;;5035683;28;20957;-59
2023/02/27 04:45:03;;;;;;;13.87;7.67;;;-3.50;99.90;;;;;;5037590;28;20501;-60
2023/02/27 04:47:35;;;;;;;10.40;6.30;;;-3.50;99.90;;;;;;5037709;28;20481;-60
2023/02/27 04:50:10;;;;;;;8.97;6.27;;;-3.50;99.90;;;;;;5034974;28;20455;-58
2023/02/27 04:52:41;;;;;;;9.90;6.63;;;-3.50;99.90;;;;;;5038131;28;20477;-59
2023/02/27 04:55:13;;;;;;;9.80;7.57;;;-3.50;99.90;;;;;;5039047;28;20968;-58
2023/02/27 04:57:48;;;;;;;13.13;7.27;;;-3.50;1.00;;;;;;5037695;28;20487;-61
2023/02/27 05:00:19;;;;;;;7.53;5.87;;;-3.40;1.00;;;;;;5034000;28;20465;-60
2023/02/27 05:02:51;;;;;;;9.40;6.50;;;-3.50;1.00;;;;;;5032995;28;20465;-60
2023/02/27 05:05:26;;;;;;;10.97;6.80;;;-3.50;1.00;;;;;;5033756;28;20481;-59
2023/02/27 05:07:57;;;;;;;10.97;6.10;;;-3.50;1.00;;;;;;5072124;28;20457;-61
2023/02/27 05:10:32;;;;;;;9.33;6.50;;;-3.60;99.90;;;;;;5077295;28;20544;-59
2023/02/27 05:13:05;;;;;;;11.50;7.73;;;-3.50;99.90;;;;;;5078453;28;20504;-60
2023/02/27 05:15:38;;;;;;;12.47;8.37;;;-3.40;1.00;;;;;;5078365;28;20456;-59
2023/02/27 05:18:10;;;;;;;15.50;8.23;;;-3.50;99.90;;;;;;5077499;28;20488;-60
2023/02/27 05:20:49;;;;;;;11.17;7.60;;;-3.50;99.90;;;;;;5077237;28;20600;-60
2023/02/27 05:23:25;;;;;;;10.77;7.53;;;-3.50;99.90;;;;;;5075763;28;20878;-63
2023/02/27 05:25:58;;;;;;;8.93;7.53;;;-3.50;99.90;;;;;;5078061;28;20490;-63
2023/02/27 05:28:34;;;;;;;10.57;7.00;;;-3.60;99.90;;;;;;5078273;28;20461;-63
2023/02/27 05:31:10;;;;;;;11.47;6.13;;;-3.50;1.00;;;;;;5077772;28;20539;-64
2023/02/27 05:33:42;;;;;;;8.67;6.60;;;-3.50;1.00;;;;;;5075056;28;20551;-63
2023/02/27 05:36:15;;;;;;;7.83;6.67;;;-3.50;1.00;;;;;;5063069;28;20449;-64
2023/02/27 05:38:47;;;;;;;7.70;5.93;;;-3.50;1.00;;;;;;5076081;28;20493;-63
2023/02/27 05:41:18;;;;;;;14.20;7.13;;;-3.50;1.00;;;;;;5073015;28;20782;-64
2023/02/27 05:43:51;;;;;;;8.03;6.20;;;-3.50;1.00;;;;;;5075880;28;20790;-63
2023/02/27 05:46:21;;;;;;;8.87;6.27;;;-3.50;1.00;;;;;;5076089;28;20465;-64
2023/02/27 05:48:54;;;;;;;10.17;6.90;;;-3.60;99.90;;;;;;5075256;28;20431;-64
2023/02/27 05:51:24;;;;;;;10.17;8.20;;;-3.70;99.90;;;;;;5076629;28;20487;-64
2023/02/27 05:53:57;;;;;;;32.07;16.30;;;-3.60;99.90;;;;;;5072989;28;20461;-63
2023/02/27 05:56:30;;;;;;;27.13;13.63;;;-3.60;99.90;;;;;;5076278;28;20922;-64
2023/02/27 05:59:07;;;;;;;21.30;11.97;;;-3.60;1.00;;;;;;5073163;28;20489;-64
2023/02/27 06:01:34;;;;;;;12.60;8.80;;;-3.60;1.00;;;;;;5072909;28;20460;-63
2023/02/27 06:04:02;;;;;;;15.83;10.33;;;-3.60;1.00;;;;;;5072817;28;20472;-64
2023/02/27 06:06:31;;;;;;;15.40;8.93;;;-3.70;1.00;;;;;;5072980;28;20487;-63
2023/02/27 06:08:58;;;;;;;14.70;9.97;;;-3.70;1.00;;;;;;5072896;28;20794;-64
2023/02/27 06:11:25;;;;;;;54.20;25.40;;;-3.70;1.00;;;;;;5073617;28;20548;-64
2023/02/27 06:13:53;;;;;;;39.87;18.97;;;-3.70;1.00;;;;;;5073841;28;20540;-64
2023/02/27 06:16:22;;;;;;;16.13;9.73;;;-3.70;1.00;;;;;;5073978;28;20484;-63
2023/02/27 06:18:50;;;;;;;18.73;9.93;;;-3.80;1.00;;;;;;5071121;28;20558;-64
2023/02/27 06:21:17;;;;;;;11.30;8.63;;;-3.80;99.90;;;;;;5073130;28;20461;-63
2023/02/27 06:23:45;;;;;;;10.43;8.10;;;-3.70;99.90;;;;;;5068493;28;20475;-64
2023/02/27 06:26:13;;;;;;;10.97;7.97;;;-3.70;1.00;;;;;;5073717;28;20467;-64
2023/02/27 06:28:41;;;;;;;11.87;8.07;;;-3.70;1.00;;;;;;5072304;28;20529;-64
2023/02/27 06:31:08;;;;;;;14.07;8.33;;;-3.70;99.90;;;;;;5069527;28;20473;-64
2023/02/27 06:33:37;;;;;;;11.37;8.13;;;-3.80;99.90;;;;;;5072939;28;20522;-63
2023/02/27 06:36:04;;;;;;;13.57;8.57;;;-3.70;99.90;;;;;;5074661;28;20480;-63
2023/02/27 06:38:33;;;;;;;10.17;7.43;;;-3.70;1.00;;;;;;5075737;28;20493;-63
2023/02/27 06:41:01;;;;;;;12.90;9.30;;;-3.80;1.00;;;;;;5077203;28;20469;-64
2023/02/27 06:43:29;;;;;;;11.20;8.27;;;-3.70;99.90;;;;;;5075714;28;20465;-63
2023/02/27 06:45:56;;;;;;;16.30;9.57;;;-3.70;99.90;;;;;;5075583;28;20465;-64
2023/02/27 06:48:24;;;;;;;9.77;7.53;;;-3.60;1.00;;;;;;5076955;28;20457;-63
2023/02/27 06:50:57;;;;;;;8.80;7.20;;;-3.60;1.00;;;;;;5075735;28;20461;-64
2023/02/27 06:53:25;;;;;;;15.70;9.17;;;-3.40;1.00;;;;;;5075126;28;20467;-63
2023/02/27 06:55:52;;;;;;;14.20;9.10;;;-3.40;1.00;;;;;;5075592;28;20468;-64
2023/02/27 06:58:19;;;;;;;12.17;9.17;;;-3.40;1.00;;;;;;5074166;28;20485;-64
2023/02/27 07:00:47;;;;;;;13.10;8.50;;;-3.30;99.90;;;;;;5073983;28;20756;-64
2023/02/27 07:03:14;;;;;;;14.30;9.30;;;-3.30;99.90;;;;;;5064970;28;20475;-63
2023/02/27 07:05:42;;;;;;;15.70;10.20;;;-3.30;99.90;;;;;;5061745;28;20498;-63
2023/02/27 07:08:12;;;;;;;11.43;8.67;;;-3.30;99.90;;;;;;5065795;28;20838;-64
2023/02/27 07:10:42;;;;;;;11.93;9.03;;;-3.20;99.90;;;;;;5065759;28;20565;-64
2023/02/27 07:13:10;;;;;;;11.93;9.07;;;-3.20;99.90;;;;;;5069042;28;20477;-63
2023/02/27 07:15:37;;;;;;;16.07;9.33;;;-3.20;99.90;;;;;;5070695;28;20470;-63
2023/02/27 07:18:05;;;;;;;13.97;8.63;;;-3.10;99.90;;;;;;5066211;28;20489;-63
2023/02/27 07:20:32;;;;;;;13.30;9.07;;;-3.10;99.90;;;;;;5067030;28;20477;-63
2023/02/27 07:22:59;;;;;;;12.27;8.83;;;-3.00;99.90;;;;;;5056528;28;20791;-63
2023/02/27 07:25:28;;;;;;;11.40;8.23;;;-2.90;99.90;;;;;;5070141;28;20446;-64
2023/02/27 07:27:58;;;;;;;16.67;9.57;;;-2.80;99.90;;;;;;5083443;28;20476;-63
2023/02/27 07:30:25;;;;;;;13.40;10.30;;;-2.70;99.90;;;;;;5073696;28;20829;-63
2023/02/27 07:32:52;;;;;;;16.57;10.73;;;-2.50;1.00;;;;;;5070162;28;20470;-63
2023/02/27 07:35:20;;;;;;;14.70;9.87;;;-2.20;99.90;;;;;;5072587;28;20469;-63
2023/02/27 07:37:47;;;;;;;13.27;9.90;;;-2.10;99.90;;;;;;5077812;28;20465;-63
2023/02/27 07:40:15;;;;;;;12.53;9.43;;;-1.90;99.90;;;;;;5078759;28;20457;-63
2023/02/27 07:42:44;;;;;;;12.47;9.17;;;-1.60;1.00;;;;;;5077922;28;20465;-63
2023/02/27 07:45:12;;;;;;;12.33;9.50;;;-1.50;99.90;;;;;;5079922;28;20457;-64
2023/02/27 07:47:39;;;;;;;15.23;8.67;;;-1.40;49.40;;;;;;5079870;28;20475;-63
2023/02/27 07:50:08;;;;;;;10.80;8.90;;;-1.20;1.00;;;;;;5079945;28;20461;-63
2023/02/27 07:52:35;;;;;;;12.00;9.03;;;-1.00;1.00;;;;;;5079341;28;20530;-62
2023/02/27 07:55:02;;;;;;;12.00;8.90;;;-0.90;99.90;;;;;;5079595;28;20467;-63
2023/02/27 07:57:29;;;;;;;14.50;9.47;;;-0.70;99.90;;;;;;5079187;28;20520;-62
2023/02/27 07:59:58;;;;;;;11.80;8.50;;;-0.60;99.90;;;;;;5079562;28;20499;-61
2023/02/27 08:02:26;;;;;;;10.50;8.93;;;-0.40;1.00;;;;;;5079888;28;20809;-61
2023/02/27 08:04:53;;;;;;;10.73;8.47;;;-0.30;1.00;;;;;;5079437;28;20869;-61
2023/02/27 08:07:21;;;;;;;12.03;8.57;;;-0.20;1.00;;;;;;5078788;28;20496;-57
2023/02/27 08:09:48;;;;;;;11.47;8.37;;;0.00;1.00;;;;;;5078877;28;20574;-60
2023/02/27 08:12:15;;;;;;;11.77;8.30;;;0.00;1.00;;;;;;5077936;28;20480;-59
2023/02/27 08:14:42;;;;;;;8.80;7.90;;;0.20;1.00;;;;;;5077437;28;20460;-58
2023/02/27 08:17:11;;;;;;;8.50;7.03;;;0.30;1.00;;;;;;5077222;28;20470;-55
2023/02/27 08:19:39;;;;;;;10.43;7.97;;;0.50;1.00;;;;;;5064773;28;20538;-59
2023/02/27 08:22:07;;;;;;;9.37;6.90;;;0.80;1.00;;;;;;5077391;28;20873;-59
2023/02/27 08:24:34;;;;;;;8.87;7.10;;;1.00;1.00;;;;;;5077175;28;20918;-61
2023/02/27 08:27:01;;;;;;;8.43;6.07;;;1.10;1.00;;;;;;5076965;28;20872;-61
2023/02/27 08:29:30;;;;;;;7.83;6.70;;;1.30;1.00;;;;;;5077149;28;20465;-62
2023/02/27 08:31:57;;;;;;;7.63;6.47;;;1.40;1.00;;;;;;5077640;28;20461;-63
2023/02/27 08:34:25;;;;;;;7.73;6.93;;;1.50;1.00;;;;;;5077296;28;20766;-63
2023/02/27 08:36:53;;;;;;;12.30;6.53;;;1.80;1.00;;;;;;5077254;28;20465;-63
2023/02/27 08:39:22;;;;;;;8.97;6.30;;;2.00;1.00;;;;;;5076429;28;20538;-63
2023/02/27 08:41:51;;;;;;;8.07;6.17;;;2.00;1.00;;;;;;5078531;28;20461;-63
2023/02/27 08:44:18;;;;;;;8.60;6.00;;;2.20;1.00;;;;;;5079159;28;20466;-64
2023/02/27 08:46:45;;;;;;;8.17;5.60;;;2.00;1.00;;;;;;5078487;28;20468;-63
2023/02/27 08:49:13;;;;;;;6.60;5.80;;;2.30;1.00;;;;;;5078364;28;20457;-63
2023/02/27 08:51:41;;;;;;;8.10;6.10;;;2.10;1.00;;;;;;5078895;28;20468;-63
2023/02/27 08:54:08;;;;;;;8.83;6.03;;;2.20;1.00;;;;;;5078770;28;20556;-63
2023/02/27 08:56:35;;;;;;;8.13;6.33;;;2.60;1.00;;;;;;5078476;28;20483;-63
2023/02/27 08:59:02;;;;;;;8.30;5.53;;;2.70;1.00;;;;;;5078077;28;20503;-63
2023/02/27 09:01:33;;;;;;;8.00;5.90;;;3.10;1.00;;;;;;5078549;28;20468;-62
2023/02/27 09:04:01;;;;;;;8.73;5.40;;;3.30;99.90;;;;;;5078271;28;20493;-62
2023/02/27 09:06:29;;;;;;;5.47;4.97;;;3.50;99.90;;;;;;5077803;28;20771;-62
2023/02/27 09:08:58;;;;;;;7.63;4.70;;;3.60;99.90;;;;;;5077619;28;20457;-60
2023/02/27 09:11:27;;;;;;;8.80;5.27;;;3.90;99.90;;;;;;5077920;28;20465;-61
2023/02/27 09:13:54;;;;;;;6.37;5.30;;;4.20;99.90;;;;;;5077859;28;20487;-58
2023/02/27 09:16:22;;;;;;;8.07;5.33;;;3.90;99.90;;;;;;5078123;28;20461;-61
2023/02/27 09:18:50;;;;;;;5.67;4.90;;;4.00;99.90;;;;;;5076612;28;20499;-59
2023/02/27 09:21:18;;;;;;;6.83;5.47;;;3.90;99.90;;;;;;5077876;28;20457;-60
2023/02/27 09:23:45;;;;;;;5.30;4.60;;;4.40;99.90;;;;;;5077781;28;20469;-60
2023/02/27 09:26:14;;;;;;;4.97;4.43;;;5.00;99.90;;;;;;5077311;28;20816;-59
2023/02/27 09:28:42;;;;;;;5.00;4.37;;;5.00;99.90;;;;;;5077413;28;20491;-59
2023/02/27 09:31:09;;;;;;;11.10;4.87;;;5.10;99.90;;;;;;5077724;28;20461;-57
2023/02/27 09:33:38;;;;;;;4.60;3.77;;;5.50;99.90;;;;;;5077665;28;20472;-62
2023/02/27 09:36:06;;;;;;;6.03;4.30;;;5.70;99.90;;;;;;5077516;28;20959;-61
2023/02/27 09:38:34;;;;;;;16.23;5.07;;;5.60;99.90;;;;;;5076959;28;20887;-60
2023/02/27 09:41:02;;;;;;;5.73;4.03;;;5.80;99.90;;;;;;5077019;28;20766;-59
2023/02/27 09:43:37;;;;;;;5.80;3.87;;;5.80;99.90;;;;;;5077417;28;20738;-60
2023/02/27 09:46:06;;;;;;;4.53;4.03;;;5.50;99.90;;;;;;5077764;28;20479;-61
2023/02/27 09:48:37;;;;;;;6.10;4.20;;;5.50;99.90;;;;;;5076996;28;20831;-58
2023/02/27 09:51:05;;;;;;;4.90;3.70;;;5.70;99.90;;;;;;5076343;28;20901;-60
2023/02/27 09:53:37;;;;;;;7.43;3.70;;;5.70;99.90;;;;;;5073426;28;20479;-61
2023/02/27 09:56:09;;;;;;;5.40;3.67;;;5.80;99.90;;;;;;5077296;28;20461;-57
2023/02/27 09:58:47;;;;;;;4.03;3.33;;;6.30;99.90;;;;;;5076808;28;20863;-57
2023/02/27 10:01:20;;;;;;;5.17;3.57;;;6.40;99.90;;;;;;5076130;28;20865;-59
2023/02/27 10:04:12;;;;;;;4.80;3.53;;;6.30;99.90;;;;;;5077492;28;20515;-59
2023/02/27 10:06:44;;;;;;;4.60;3.33;;;6.10;99.90;;;;;;5076588;28;20488;-58
2023/02/27 10:09:28;;;;;;;4.27;3.60;;;6.50;99.90;;;;;;5076937;28;20760;-58
2023/02/27 10:12:06;;;;;;;7.33;3.70;;;7.20;99.90;;;;;;5073755;28;20909;-63
2023/02/27 10:14:41;;;;;;;5.40;3.37;;;7.80;99.90;;;;;;5059159;28;20474;-62
2023/02/27 10:17:16;;;;;;;5.23;3.10;;;8.20;99.90;;;;;;5073763;28;20744;-63
2023/02/27 10:19:46;;;;;;;5.80;2.83;;;8.20;99.90;;;;;;5075082;28;20500;-63
2023/02/27 10:22:18;;;;;;;12.27;3.73;;;8.20;99.90;;;;;;5076415;28;20477;-64
2023/02/27 10:24:50;;;;;;;4.43;2.93;;;8.20;99.90;;;;;;5070137;28;20487;-62
2023/02/27 10:27:20;;;;;;;5.83;2.70;;;7.70;99.90;;;;;;5075578;28;20733;-63
2023/02/27 10:29:49;;;;;;;3.70;2.67;;;7.30;99.90;;;;;;5066838;28;20458;-63
2023/02/27 10:32:22;;;;;;;6.20;2.77;;;7.50;99.90;;;;;;5070330;28;20466;-63
2023/02/27 10:34:52;;;;;;;5.50;2.80;;;7.80;99.90;;;;;;5069664;28;20473;-63
2023/02/27 10:37:24;;;;;;;4.90;3.20;;;7.40;99.90;;;;;;5075771;28;20473;-63
2023/02/27 10:39:55;;;;;;;3.70;2.70;;;8.00;99.90;;;;;;5076803;28;20495;-63
2023/02/27 10:42:24;;;;;;;5.53;3.10;;;8.20;99.90;;;;;;5076403;28;20476;-63
2023/02/27 10:44:53;;;;;;;6.77;3.27;;;7.90;99.90;;;;;;5080182;28;20483;-63
2023/02/27 10:47:23;;;;;;;3.70;3.10;;;8.50;99.90;;;;;;5066990;28;20474;-63
2023/02/27 10:49:51;;;;;;;5.43;3.10;;;8.60;99.90;;;;;;5075237;28;20507;-63
2023/02/27 10:52:18;;;;;;;8.33;3.40;;;8.90;99.90;;;;;;5078104;28;20473;-64
2023/02/27 10:54:54;;;;;;;5.40;3.30;;;9.10;99.90;;;;;;5079885;28;20465;-64
2023/02/27 10:57:31;;;;;;;3.63;2.80;;;8.90;99.90;;;;;;5080305;28;20487;-64
2023/02/27 11:00:04;;;;;;;4.00;3.00;;;8.10;99.90;;;;;;5080422;28;20489;-63
2023/02/27 11:02:36;;;;;;;5.37;3.00;;;8.30;99.90;;;;;;5079732;28;20461;-64
2023/02/27 11:05:06;;;;;;;4.00;2.83;;;8.80;99.90;;;;;;5078173;28;20469;-63
2023/02/27 11:07:36;;;;;;;4.37;3.00;;;8.90;99.90;;;;;;5077459;28;20491;-63
2023/02/27 11:10:16;;;;;;;7.23;4.07;;;8.80;99.90;;;;;;5076059;28;20453;-64
2023/02/27 11:12:58;;;;;;;4.63;2.57;;;8.90;99.90;;;;;;5084496;28;20468;-64
2023/02/27 11:15:31;;;;;;;3.97;3.10;;;8.30;99.90;;;;;;5076153;28;20561;-63
2023/02/27 11:18:20;;;;;;;4.53;2.73;;;8.10;99.90;;;;;;5075825;28;20792;-63
2023/02/27 11:20:49;;;;;;;4.70;2.90;;;8.70;99.90;;;;;;5074698;28;20485;-63
2023/02/27 11:23:19;;;;;;;6.17;3.30;;;8.70;99.90;;;;;;5076484;28;20992;-64
2023/02/27 11:25:46;;;;;;;6.97;3.17;;;8.10;99.90;;;;;;5076753;28;20556;-64
2023/02/27 11:28:22;;;;;;;3.67;3.00;;;7.60;99.90;;;;;;5074858;28;20471;-63
2023/02/27 11:30:59;;;;;;;5.30;2.80;;;7.90;99.90;;;;;;5075360;28;20461;-63
2023/02/27 11:33:28;;;;;;;8.27;2.90;;;8.20;99.90;;;;;;5074657;28;20473;-63
2023/02/27 11:35:56;;;;;;;2.97;2.67;;;8.00;99.90;;;;;;5079733;28;20467;-63
2023/02/27 11:38:26;;;;;;;3.40;2.37;;;7.70;99.90;;;;;;5075603;28;20753;-63
2023/02/27 11:40:56;;;;;;;4.33;2.60;;;7.60;99.90;;;;;;5079623;28;20492;-63
2023/02/27 11:43:26;;;;;;;4.40;2.83;;;8.00;99.90;;;;;;5078048;28;20473;-64
2023/02/27 11:45:58;;;;;;;3.60;2.17;;;8.50;99.90;;;;;;5079631;28;20471;-63
2023/02/27 11:48:29;;;;;;;4.07;2.90;;;8.90;99.90;;;;;;5079234;28;20958;-64
2023/02/27 11:51:33;;;;;;;5.10;2.30;;;9.00;99.90;;;;;;5076557;28;20465;-64
2023/02/27 11:54:18;;;;;;;6.27;2.90;;;8.90;99.90;;;;;;5077162;28;20777;-64
2023/02/27 11:56:48;;;;;;;8.13;3.43;;;8.60;99.90;;;;;;5076090;28;20726;-64
2023/02/27 11:59:32;;;;;;;3.80;2.13;;;8.20;99.90;;;;;;5077496;28;20891;-64
2023/02/27 12:02:06;;;;;;;3.50;2.70;;;7.80;99.90;;;;;;5076610;28;20469;-62
2023/02/27 12:04:42;;;;;;;6.03;2.50;;;7.70;99.90;;;;;;5072296;28;20507;-63
2023/02/27 12:07:18;;;;;;;5.00;2.67;;;8.20;99.90;;;;;;5077773;28;20490;-63
2023/02/27 12:09:51;;;;;;;6.30;2.40;;;7.60;99.90;;;;;;5076195;28;20457;-64
2023/02/27 12:12:23;;;;;;;4.23;2.43;;;7.40;99.90;;;;;;5071228;28;20468;-62
2023/02/27 12:14:59;;;;;;;5.57;3.03;;;7.30;99.90;;;;;;5076108;28;20457;-63
2023/02/27 12:17:33;;;;;;;3.80;2.80;;;7.50;99.90;;;;;;5068417;28;20469;-62
2023/02/27 12:20:27;;;;;;;4.97;2.70;;;7.70;99.90;;;;;;5075987;28;20497;-63
2023/02/27 12:22:55;;;;;;;2.97;2.37;;;8.40;99.90;;;;;;5077365;28;20457;-63
2023/02/27 12:25:40;;;;;;;5.30;2.77;;;8.60;99.90;;;;;;5075617;28;20476;-62
2023/02/27 12:28:20;;;;;;;5.20;2.90;;;9.10;99.90;;;;;;5062798;28;20470;-61
2023/02/27 12:30:55;;;;;;;5.63;3.03;;;9.10;99.90;;;;;;5078034;28;20457;-62
2023/02/27 12:33:32;;;;;;;4.77;2.97;;;8.20;99.90;;;;;;5075440;28;20469;-62
2023/02/27 12:36:03;;;;;;;7.77;2.50;;;7.80;99.90;;;;;;5072273;28;20472;-61
2023/02/27 12:38:31;;;;;;;7.13;2.90;;;8.60;99.90;;;;;;5076537;28;20457;-62
2023/02/27 12:41:10;;;;;;;3.60;2.80;;;7.80;99.90;;;;;;5076376;28;20493;-62
2023/02/27 12:43:45;;;;;;;4.60;3.07;;;8.10;99.90;;;;;;5072863;28;20680;-61
2023/02/27 12:46:38;;;;;;;3.50;2.33;;;8.60;99.90;;;;;;5062582;28;20482;-62
2023/02/27 12:49:20;;;;;;;4.33;2.53;;;8.30;99.90;;;;;;5077544;28;20547;-61
2023/02/27 12:51:56;;;;;;;2.80;2.50;;;8.70;99.90;;;;;;5075066;28;20467;-60
2023/02/27 12:54:35;;;;;;;4.97;2.43;;;9.00;99.90;;;;;;5072868;28;20480;-61
2023/02/27 12:57:15;;;;;;;4.33;2.57;;;9.30;99.90;;;;;;5074883;28;21055;-62
2023/02/27 12:59:57;;;;;;;4.97;2.97;;;9.60;99.90;;;;;;5075182;28;20486;-62
2023/02/27 13:02:47;;;;;;;3.77;2.57;;;9.70;99.90;;;;;;5070580;28;20785;-62
2023/02/27 13:05:36;;;;;;;6.17;3.17;;;9.40;99.90;;;;;;5072677;28;20484;-61
2023/02/27 13:08:15;;;;;;;5.07;2.67;;;9.70;99.90;;;;;;5033208;28;20451;-62
2023/02/27 13:10:49;;;;;;;3.00;2.70;;;8.50;99.90;;;;;;5032820;28;20465;-62
2023/02/27 13:13:23;;;;;;;3.33;3.03;;;8.50;99.90;;;;;;5033579;28;20459;-62
2023/02/27 13:15:54;;;;;;;5.40;2.73;;;8.20;99.90;;;;;;5033814;28;20544;-61
2023/02/27 13:18:42;;;;;;;3.87;2.80;;;7.80;99.90;;;;;;5033875;28;20455;-61